createdAt,value
2022-07-29T00:00:09.237Z,16.89
2022-07-29T00:01:18.986Z,16.88
2022-07-29T00:02:20.024Z,16.87
2022-07-29T00:03:22.900Z,16.87
2022-07-29T00:04:25.924Z,16.86
2022-07-29T00:05:28.723Z,16.85
2022-07-29T00:06:31.861Z,16.84
2022-07-29T00:07:34.602Z,16.84
2022-07-29T00:08:37.424Z,16.82
2022-07-29T00:09:44.910Z,16.80
2022-07-29T00:10:45.213Z,16.78
2022-07-29T00:11:48.181Z,16.77
2022-07-29T00:12:51.109Z,16.75
2022-07-29T00:13:54.863Z,16.73
2022-07-29T00:14:57.697Z,16.70
2022-07-29T00:16:04.435Z,16.67
2022-07-29T00:17:05.088Z,16.66
2022-07-29T00:18:07.914Z,16.67
2022-07-29T00:19:10.631Z,16.69
2022-07-29T00:20:14.427Z,16.73
2022-07-29T00:21:18.233Z,16.79
2022-07-29T00:22:21.018Z,16.83
2022-07-29T00:23:24.123Z,16.88
2022-07-29T00:24:27.018Z,16.95
2022-07-29T00:25:29.612Z,17.00
2022-07-29T00:26:34.347Z,17.06
2022-07-29T00:27:36.916Z,17.14
2022-07-29T00:28:39.501Z,17.19
2022-07-29T00:29:42.079Z,17.24
2022-07-29T00:30:45.248Z,17.28
2022-07-29T00:31:47.944Z,17.29
2022-07-29T00:32:50.755Z,17.29
2022-07-29T00:33:53.492Z,17.28
2022-07-29T00:34:56.270Z,17.26
2022-07-29T00:35:58.928Z,17.24
2022-07-29T00:37:01.705Z,17.23
2022-07-29T00:38:04.384Z,17.19
2022-07-29T00:39:06.980Z,17.17
2022-07-29T00:40:11.247Z,17.14
2022-07-29T00:41:13.925Z,17.12
2022-07-29T00:42:16.906Z,17.08
2022-07-29T00:43:19.604Z,17.05
2022-07-29T00:44:22.385Z,17.03
2022-07-29T00:45:25.070Z,16.99
2022-07-29T00:46:28.030Z,16.95
2022-07-29T00:47:30.862Z,16.91
2022-07-29T00:48:33.435Z,16.90
2022-07-29T00:49:36.273Z,16.87
2022-07-29T00:50:39.174Z,16.85
2022-07-29T00:51:41.875Z,16.83
2022-07-29T00:52:44.450Z,16.79
2022-07-29T00:53:47.245Z,16.76
2022-07-29T00:54:49.835Z,16.71
2022-07-29T00:55:54.227Z,16.68
2022-07-29T00:57:00.247Z,16.65
2022-07-29T00:58:03.030Z,16.60
2022-07-29T00:59:05.732Z,16.57
2022-07-29T01:00:11.770Z,16.54
2022-07-29T01:01:14.568Z,16.51
2022-07-29T01:02:17.485Z,16.50
2022-07-29T01:03:20.423Z,16.48
2022-07-29T01:04:23.012Z,16.45
2022-07-29T01:05:50.088Z,16.43
2022-07-29T01:06:31.718Z,16.41
2022-07-29T01:08:55.811Z,16.47
2022-07-29T01:09:58.757Z,16.35
2022-07-29T01:11:01.636Z,16.34
2022-07-29T01:12:05.172Z,16.32
2022-07-29T01:13:08.427Z,16.29
2022-07-29T01:14:11.488Z,16.27
2022-07-29T01:15:14.163Z,16.26
2022-07-29T01:16:24.261Z,16.25
2022-07-29T01:17:54.649Z,16.23
2022-07-29T01:19:03.339Z,16.21
2022-07-29T01:20:15.632Z,16.19
2022-07-29T01:21:31.210Z,16.17
2022-07-29T01:22:37.888Z,16.16
2022-07-29T01:23:50.364Z,16.14
2022-07-29T01:25:02.280Z,16.12
2022-07-29T01:27:35.776Z,16.21
2022-07-29T01:28:42.117Z,16.11
2022-07-29T01:31:07.778Z,16.29
2022-07-29T01:32:22.600Z,16.21
2022-07-29T01:33:19.083Z,16.24
2022-07-29T01:34:23.872Z,16.28
2022-07-29T01:35:29.123Z,16.32
2022-07-29T01:37:59.448Z,16.54
2022-07-29T01:39:08.910Z,16.50
2022-07-29T01:40:16.020Z,16.54
2022-07-29T01:41:18.967Z,16.60
2022-07-29T01:42:28.517Z,16.66
2022-07-29T01:43:51.992Z,16.71
2022-07-29T01:44:57.917Z,16.77
2022-07-29T01:46:03.186Z,16.84
2022-07-29T01:47:15.445Z,16.86
2022-07-29T01:49:48.297Z,16.97
2022-07-29T01:50:54.436Z,16.84
2022-07-29T01:51:59.816Z,16.78
2022-07-29T01:53:07.000Z,16.72
2022-07-29T01:54:21.509Z,16.65
2022-07-29T01:55:27.473Z,16.59
2022-07-29T01:56:30.503Z,16.53
2022-07-29T01:57:33.098Z,16.51
2022-07-29T01:58:35.866Z,16.47
2022-07-29T01:59:38.443Z,16.42
2022-07-29T02:00:41.346Z,16.37
2022-07-29T02:01:46.182Z,16.33
2022-07-29T02:02:48.994Z,16.28
2022-07-29T02:03:51.732Z,16.24
2022-07-29T02:04:54.461Z,16.21
2022-07-29T02:07:11.398Z,16.23
2022-07-29T02:08:14.069Z,16.11
2022-07-29T02:09:16.666Z,16.10
2022-07-29T02:10:25.783Z,16.13
2022-07-29T02:11:26.557Z,16.16
2022-07-29T02:12:29.234Z,16.20
2022-07-29T02:13:31.810Z,16.24
2022-07-29T02:14:41.082Z,16.29
2022-07-29T02:15:43.862Z,16.33
2022-07-29T02:16:47.667Z,16.41
2022-07-29T02:17:53.991Z,16.43
2022-07-29T02:18:56.633Z,16.49
2022-07-29T02:20:00.990Z,16.53
2022-07-29T02:21:04.122Z,16.58
2022-07-29T02:22:07.315Z,16.63
2022-07-29T02:23:10.831Z,16.64
2022-07-29T02:24:14.193Z,16.70
2022-07-29T02:25:17.202Z,16.72
2022-07-29T02:26:21.302Z,16.77
2022-07-29T02:27:24.085Z,16.79
2022-07-29T02:28:28.805Z,16.83
2022-07-29T02:29:31.514Z,16.85
2022-07-29T02:30:37.032Z,16.87
2022-07-29T02:31:39.685Z,16.91
2022-07-29T02:32:42.463Z,16.93
2022-07-29T02:33:45.464Z,16.97
2022-07-29T02:34:48.149Z,17.01
2022-07-29T02:35:50.733Z,17.03
2022-07-29T02:36:53.713Z,17.03
2022-07-29T02:37:56.279Z,17.01
2022-07-29T02:38:58.961Z,16.98
2022-07-29T02:40:01.656Z,16.95
2022-07-29T02:41:15.987Z,16.91
2022-07-29T02:42:18.692Z,16.86
2022-07-29T02:43:21.688Z,16.82
2022-07-29T02:44:24.999Z,16.78
2022-07-29T02:45:27.734Z,16.72
2022-07-29T02:46:35.118Z,16.67
2022-07-29T02:47:43.331Z,16.62
2022-07-29T02:48:52.263Z,16.55
2022-07-29T02:50:10.637Z,16.50
2022-07-29T02:51:43.484Z,16.44
2022-07-29T02:52:34.274Z,16.40
2022-07-29T02:53:36.989Z,16.38
2022-07-29T02:54:48.616Z,16.39
2022-07-29T02:55:59.341Z,16.40
2022-07-29T02:57:04.643Z,16.44
2022-07-29T02:58:22.440Z,16.49
2022-07-29T02:59:26.679Z,16.54
2022-07-29T03:00:32.486Z,16.64
2022-07-29T03:01:35.245Z,16.69
2022-07-29T03:02:40.895Z,16.75
2022-07-29T03:04:56.096Z,16.93
2022-07-29T03:06:01.563Z,16.86
2022-07-29T03:07:04.247Z,16.89
2022-07-29T03:09:18.332Z,17.09
2022-07-29T03:10:23.639Z,17.02
2022-07-29T03:11:46.130Z,17.07
2022-07-29T03:12:30.984Z,17.11
2022-07-29T03:13:33.819Z,17.18
2022-07-29T03:14:36.409Z,17.27
2022-07-29T03:15:39.128Z,17.34
2022-07-29T03:16:42.444Z,17.42
2022-07-29T03:17:45.178Z,17.48
2022-07-29T03:18:47.880Z,17.50
2022-07-29T03:19:50.607Z,17.50
2022-07-29T03:20:53.563Z,17.49
2022-07-29T03:21:57.549Z,17.45
2022-07-29T03:23:00.604Z,17.39
2022-07-29T03:24:09.765Z,17.36
2022-07-29T03:25:09.936Z,17.33
2022-07-29T03:26:13.152Z,17.30
2022-07-29T03:27:15.831Z,17.27
2022-07-29T03:28:18.629Z,17.24
2022-07-29T03:29:22.014Z,17.20
2022-07-29T03:30:26.834Z,17.19
2022-07-29T03:31:30.285Z,17.19
2022-07-29T03:32:33.819Z,17.21
2022-07-29T03:33:36.495Z,17.23
2022-07-29T03:34:39.207Z,17.24
2022-07-29T03:35:42.069Z,17.27
2022-07-29T03:36:44.833Z,17.31
2022-07-29T03:37:47.453Z,17.33
2022-07-29T03:38:50.619Z,17.35
2022-07-29T03:39:54.543Z,17.38
2022-07-29T03:40:59.042Z,17.39
2022-07-29T03:42:01.739Z,17.40
2022-07-29T03:44:25.045Z,17.54
2022-07-29T03:45:27.738Z,17.46
2022-07-29T03:46:31.767Z,17.50
2022-07-29T03:47:49.805Z,17.54
2022-07-29T03:48:42.476Z,17.59
2022-07-29T03:49:45.373Z,17.64
2022-07-29T03:50:48.631Z,17.68
2022-07-29T03:51:51.490Z,17.70
2022-07-29T03:52:54.200Z,17.72
2022-07-29T03:53:57.275Z,17.77
2022-07-29T03:55:00.160Z,17.82
2022-07-29T03:56:03.522Z,17.88
2022-07-29T03:57:06.219Z,17.94
2022-07-29T03:58:10.615Z,17.99
2022-07-29T03:59:14.123Z,18.04
2022-07-29T04:00:17.357Z,18.09
2022-07-29T04:01:20.466Z,18.12
2022-07-29T04:02:27.324Z,18.17
2022-07-29T04:03:27.851Z,18.21
2022-07-29T04:04:35.411Z,18.26
2022-07-29T04:05:38.258Z,18.31
2022-07-29T04:06:42.170Z,18.36
2022-07-29T04:07:45.682Z,18.41
2022-07-29T04:08:48.371Z,18.47
2022-07-29T04:09:50.932Z,18.53
2022-07-29T04:10:53.944Z,18.59
2022-07-29T04:12:01.491Z,18.64
2022-07-29T04:13:01.132Z,18.70
2022-07-29T04:14:04.165Z,18.76
2022-07-29T04:15:07.695Z,18.81
2022-07-29T04:16:10.944Z,18.87
2022-07-29T04:17:13.689Z,18.91
2022-07-29T04:18:16.382Z,18.96
2022-07-29T04:19:19.069Z,19.00
2022-07-29T04:20:21.875Z,19.07
2022-07-29T04:21:24.747Z,19.13
2022-07-29T04:22:28.046Z,19.17
2022-07-29T04:23:30.839Z,19.22
2022-07-29T04:24:33.526Z,19.28
2022-07-29T04:25:40.424Z,19.32
2022-07-29T04:26:46.223Z,19.37
2022-07-29T04:27:48.811Z,19.41
2022-07-29T04:28:51.482Z,19.48
2022-07-29T04:29:56.924Z,19.51
2022-07-29T04:30:59.029Z,19.56
2022-07-29T04:32:01.655Z,19.63
2022-07-29T04:33:05.655Z,19.67
2022-07-29T04:34:08.472Z,19.76
2022-07-29T04:35:11.162Z,19.76
2022-07-29T04:36:28.746Z,19.80
2022-07-29T04:37:19.762Z,19.84
2022-07-29T04:38:23.059Z,19.88
2022-07-29T04:39:25.653Z,19.94
2022-07-29T04:40:32.270Z,19.99
2022-07-29T04:41:35.162Z,20.04
2022-07-29T04:42:46.294Z,20.09
2022-07-29T04:43:43.470Z,20.13
2022-07-29T04:44:46.187Z,20.18
2022-07-29T04:45:50.724Z,20.24
2022-07-29T04:48:05.911Z,20.45
2022-07-29T04:49:08.679Z,20.36
2022-07-29T04:50:12.131Z,20.40
2022-07-29T04:51:16.320Z,20.44
2022-07-29T04:52:19.054Z,20.49
2022-07-29T04:53:21.815Z,20.54
2022-07-29T04:54:24.778Z,20.57
2022-07-29T04:55:28.548Z,20.58
2022-07-29T04:56:31.533Z,20.64
2022-07-29T04:57:34.134Z,20.67
2022-07-29T04:58:36.820Z,20.71
2022-07-29T04:59:39.502Z,20.74
2022-07-29T05:00:42.289Z,20.77
2022-07-29T05:01:45.016Z,20.83
2022-07-29T05:02:47.827Z,20.84
2022-07-29T05:03:50.547Z,20.86
2022-07-29T05:04:53.228Z,20.91
2022-07-29T05:05:55.808Z,20.92
2022-07-29T05:06:58.581Z,20.94
2022-07-29T05:08:01.250Z,20.99
2022-07-29T05:09:03.906Z,21.02
2022-07-29T05:10:07.942Z,21.03
2022-07-29T05:11:12.033Z,21.06
2022-07-29T05:12:15.138Z,21.07
2022-07-29T05:13:17.803Z,21.09
2022-07-29T05:14:20.749Z,21.11
2022-07-29T05:15:24.087Z,21.12
2022-07-29T05:16:28.812Z,21.14
2022-07-29T05:17:31.482Z,21.17
2022-07-29T05:18:34.060Z,21.20
2022-07-29T05:19:39.655Z,21.22
2022-07-29T05:20:41.336Z,21.26
2022-07-29T05:21:44.974Z,21.30
2022-07-29T05:22:47.669Z,21.33
2022-07-29T05:23:50.371Z,21.38
2022-07-29T05:24:53.064Z,21.43
2022-07-29T05:25:55.739Z,21.46
2022-07-29T05:26:58.628Z,21.54
2022-07-29T05:28:01.300Z,21.57
2022-07-29T05:29:03.932Z,21.61
2022-07-29T05:30:08.105Z,21.61
2022-07-29T05:31:10.794Z,21.62
2022-07-29T05:32:13.764Z,21.61
2022-07-29T05:33:35.296Z,21.59
2022-07-29T05:34:20.862Z,21.59
2022-07-29T05:35:23.564Z,21.61
2022-07-29T05:36:26.755Z,21.64
2022-07-29T05:37:29.437Z,21.68
2022-07-29T05:38:32.111Z,21.72
2022-07-29T05:39:46.594Z,21.77
2022-07-29T05:41:52.085Z,21.94
2022-07-29T05:42:55.416Z,21.85
2022-07-29T05:43:58.409Z,21.89
2022-07-29T05:45:01.597Z,21.93
2022-07-29T05:46:04.590Z,21.99
2022-07-29T05:47:07.352Z,22.03
2022-07-29T05:48:10.424Z,22.09
2022-07-29T05:49:13.171Z,22.13
2022-07-29T05:50:19.508Z,22.17
2022-07-29T05:51:22.222Z,22.19
2022-07-29T05:52:24.879Z,22.21
2022-07-29T05:53:27.678Z,22.25
2022-07-29T05:55:41.044Z,22.42
2022-07-29T05:56:43.861Z,22.32
2022-07-29T05:57:46.567Z,22.34
2022-07-29T05:58:49.255Z,22.39
2022-07-29T05:59:51.968Z,22.43
2022-07-29T06:00:54.987Z,22.48
2022-07-29T06:01:58.389Z,22.51
2022-07-29T06:03:01.515Z,22.58
2022-07-29T06:04:04.431Z,22.64
2022-07-29T06:05:07.438Z,22.69
2022-07-29T06:06:13.244Z,22.72
2022-07-29T06:07:16.060Z,22.73
2022-07-29T06:08:18.741Z,22.77
2022-07-29T06:09:21.614Z,22.80
2022-07-29T06:10:26.170Z,22.85
2022-07-29T06:11:29.724Z,22.85
2022-07-29T06:12:32.517Z,22.85
2022-07-29T06:13:35.214Z,22.85
2022-07-29T06:14:37.789Z,22.88
2022-07-29T06:15:40.508Z,22.92
2022-07-29T06:16:43.625Z,22.96
2022-07-29T06:18:00.720Z,22.97
2022-07-29T06:18:50.961Z,23.03
2022-07-29T06:19:53.621Z,23.06
2022-07-29T06:20:57.483Z,23.09
2022-07-29T06:22:00.707Z,23.13
2022-07-29T06:23:03.708Z,23.14
2022-07-29T06:24:07.100Z,23.16
2022-07-29T06:25:10.138Z,23.21
2022-07-29T06:26:14.450Z,23.20
2022-07-29T06:27:17.180Z,23.23
2022-07-29T06:28:19.885Z,23.25
2022-07-29T06:29:22.550Z,23.29
2022-07-29T06:30:27.254Z,23.35
2022-07-29T06:31:30.033Z,23.39
2022-07-29T06:32:33.414Z,23.40
2022-07-29T06:33:36.102Z,23.42
2022-07-29T06:34:38.780Z,23.45
2022-07-29T06:35:44.739Z,23.47
2022-07-29T06:36:48.233Z,23.51
2022-07-29T06:37:51.846Z,23.52
2022-07-29T06:38:56.431Z,23.53
2022-07-29T06:39:59.690Z,23.55
2022-07-29T06:41:02.640Z,23.53
2022-07-29T06:42:06.149Z,23.57
2022-07-29T06:43:08.826Z,23.62
2022-07-29T06:44:11.530Z,23.65
2022-07-29T06:45:14.246Z,23.65
2022-07-29T06:46:18.016Z,23.65
2022-07-29T06:47:20.848Z,23.67
2022-07-29T06:48:23.454Z,23.72
2022-07-29T06:49:26.515Z,23.77
2022-07-29T06:50:30.005Z,23.81
2022-07-29T06:51:33.404Z,23.83
2022-07-29T06:52:36.097Z,23.87
2022-07-29T06:53:39.167Z,23.88
2022-07-29T06:54:43.816Z,23.88
2022-07-29T06:55:46.509Z,23.89
2022-07-29T06:56:49.431Z,23.92
2022-07-29T06:57:52.108Z,23.97
2022-07-29T06:58:54.799Z,23.98
2022-07-29T06:59:57.490Z,24.02
2022-07-29T07:01:03.815Z,24.08
2022-07-29T07:02:06.742Z,24.09
2022-07-29T07:03:09.610Z,24.06
2022-07-29T07:04:12.483Z,24.04
2022-07-29T07:05:15.287Z,24.06
2022-07-29T07:06:19.083Z,24.09
2022-07-29T07:07:21.651Z,24.09
2022-07-29T07:08:24.351Z,24.10
2022-07-29T07:09:31.107Z,24.11
2022-07-29T07:10:33.224Z,24.10
2022-07-29T07:11:36.038Z,24.11
2022-07-29T07:12:38.659Z,24.13
2022-07-29T07:13:41.332Z,24.17
2022-07-29T07:14:44.024Z,24.18
2022-07-29T07:15:46.892Z,24.17
2022-07-29T07:16:50.791Z,24.20
2022-07-29T07:17:55.324Z,24.21
2022-07-29T07:18:58.101Z,24.23
2022-07-29T07:20:00.764Z,24.24
2022-07-29T07:21:03.585Z,24.23
2022-07-29T07:22:06.243Z,24.25
2022-07-29T07:23:08.931Z,24.29
2022-07-29T07:24:11.611Z,24.35
2022-07-29T07:25:14.164Z,24.41
2022-07-29T07:26:17.772Z,24.43
2022-07-29T07:27:20.891Z,24.48
2022-07-29T07:28:24.957Z,24.54
2022-07-29T07:29:28.070Z,24.58
2022-07-29T07:30:31.167Z,24.62
2022-07-29T07:31:33.887Z,24.64
2022-07-29T07:32:36.917Z,24.67
2022-07-29T07:33:39.618Z,24.70
2022-07-29T07:34:43.276Z,24.74
2022-07-29T07:35:46.271Z,24.77
2022-07-29T07:36:49.408Z,24.76
2022-07-29T07:37:52.215Z,24.78
2022-07-29T07:38:54.995Z,24.81
2022-07-29T07:39:57.786Z,24.82
2022-07-29T07:41:01.264Z,24.80
2022-07-29T07:42:04.199Z,24.82
2022-07-29T07:43:06.981Z,24.90
2022-07-29T07:44:14.205Z,24.95
2022-07-29T07:45:16.285Z,24.99
2022-07-29T07:46:21.057Z,24.99
2022-07-29T07:47:23.961Z,24.93
2022-07-29T07:48:26.848Z,24.88
2022-07-29T07:49:29.561Z,24.84
2022-07-29T07:50:32.809Z,24.81
2022-07-29T07:51:35.728Z,24.80
2022-07-29T07:52:52.298Z,24.78
2022-07-29T07:53:54.996Z,24.79
2022-07-29T07:54:57.678Z,24.82
2022-07-29T07:56:10.553Z,24.86
2022-07-29T07:57:05.083Z,24.92
2022-07-29T07:58:08.262Z,24.97
2022-07-29T07:59:10.957Z,24.99
2022-07-29T08:00:15.755Z,25.02
2022-07-29T08:01:18.690Z,25.08
2022-07-29T08:02:21.698Z,25.10
2022-07-29T08:03:24.787Z,25.14
2022-07-29T08:04:29.091Z,25.19
2022-07-29T08:05:32.316Z,25.26
2022-07-29T08:06:37.049Z,25.31
2022-07-29T08:07:39.855Z,25.35
2022-07-29T08:08:43.087Z,25.35
2022-07-29T08:09:46.146Z,25.36
2022-07-29T08:10:49.166Z,25.36
2022-07-29T08:11:52.114Z,25.40
2022-07-29T08:12:55.185Z,25.43
2022-07-29T08:13:57.964Z,25.46
2022-07-29T08:15:00.755Z,25.48
2022-07-29T08:16:03.860Z,25.48
2022-07-29T08:17:06.693Z,25.47
2022-07-29T08:18:09.440Z,25.48
2022-07-29T08:19:12.211Z,25.51
2022-07-29T08:20:17.222Z,25.53
2022-07-29T08:21:20.379Z,25.55
2022-07-29T08:22:23.048Z,25.59
2022-07-29T08:23:26.330Z,25.61
2022-07-29T08:24:29.223Z,25.62
2022-07-29T08:26:43.599Z,25.80
2022-07-29T08:28:59.143Z,25.92
2022-07-29T08:30:01.868Z,25.83
2022-07-29T08:31:04.658Z,25.87
2022-07-29T08:32:07.512Z,25.88
2022-07-29T08:33:10.350Z,25.93
2022-07-29T08:34:13.118Z,25.99
2022-07-29T08:35:15.834Z,26.04
2022-07-29T08:36:19.667Z,26.10
2022-07-29T08:37:22.334Z,26.18
2022-07-29T08:38:25.015Z,26.22
2022-07-29T08:39:27.726Z,26.27
2022-07-29T08:40:32.488Z,26.33
2022-07-29T08:41:36.948Z,26.39
2022-07-29T08:42:39.955Z,26.48
2022-07-29T08:43:42.643Z,26.51
2022-07-29T08:44:45.435Z,26.50
2022-07-29T08:45:49.727Z,26.44
2022-07-29T08:46:52.868Z,26.42
2022-07-29T08:47:55.562Z,26.39
2022-07-29T08:48:58.276Z,26.40
2022-07-29T08:50:01.017Z,26.40
2022-07-29T08:51:04.400Z,26.38
2022-07-29T08:52:07.311Z,26.32
2022-07-29T08:53:15.551Z,26.25
2022-07-29T08:54:18.438Z,26.24
2022-07-29T08:55:21.554Z,26.29
2022-07-29T08:56:25.235Z,26.31
2022-07-29T08:57:27.926Z,26.34
2022-07-29T08:58:32.303Z,26.36
2022-07-29T09:03:26.323Z,26.46
2022-07-29T09:04:30.972Z,26.53
2022-07-29T09:05:38.084Z,26.60
2022-07-29T09:07:53.097Z,26.85
2022-07-29T09:08:57.606Z,26.80
2022-07-29T09:10:00.621Z,26.80
2022-07-29T09:11:03.947Z,26.84
2022-07-29T09:12:08.101Z,26.86
2022-07-29T09:13:10.784Z,26.86
2022-07-29T09:14:13.555Z,26.81
2022-07-29T09:15:16.254Z,26.79
2022-07-29T09:16:43.771Z,26.77
2022-07-29T09:17:47.012Z,26.73
2022-07-29T09:18:49.895Z,26.71
2022-07-29T09:19:52.594Z,26.71
2022-07-29T09:20:55.676Z,26.69
2022-07-29T09:21:59.840Z,26.69
2022-07-29T09:24:16.968Z,26.83
2022-07-29T09:26:46.114Z,26.91
2022-07-29T09:29:16.313Z,26.86
2022-07-29T09:31:36.207Z,26.95
2022-07-29T09:32:58.793Z,26.87
2022-07-29T09:34:01.502Z,26.88
2022-07-29T09:35:18.271Z,26.85
2022-07-29T09:36:22.823Z,26.78
2022-07-29T09:37:28.945Z,26.70
2022-07-29T09:38:32.154Z,26.60
2022-07-29T09:40:56.504Z,26.55
2022-07-29T09:42:05.513Z,26.37
2022-07-29T09:43:12.218Z,26.33
2022-07-29T09:44:15.085Z,26.30
2022-07-29T09:45:31.536Z,26.29
2022-07-29T09:46:36.108Z,26.27
2022-07-29T09:47:44.118Z,26.26
2022-07-29T09:50:01.739Z,26.40
2022-07-29T09:51:04.441Z,26.30
2022-07-29T09:52:08.525Z,26.34
2022-07-29T09:53:11.421Z,26.34
2022-07-29T09:54:25.469Z,26.38
2022-07-29T09:55:28.311Z,26.37
2022-07-29T09:56:40.465Z,26.37
2022-07-29T09:57:43.229Z,26.38
2022-07-29T09:58:45.936Z,26.38
2022-07-29T10:00:00.559Z,26.37
2022-07-29T10:01:03.330Z,26.33
2022-07-29T10:02:12.900Z,26.28
2022-07-29T10:03:15.975Z,26.28
2022-07-29T10:04:19.287Z,26.28
2022-07-29T10:05:23.612Z,26.28
2022-07-29T10:06:28.112Z,26.34
2022-07-29T10:07:53.642Z,26.36
2022-07-29T10:08:54.617Z,26.38
2022-07-29T10:09:57.624Z,26.48
2022-07-29T10:11:16.926Z,26.53
2022-07-29T10:12:19.646Z,26.56
2022-07-29T10:13:22.359Z,26.61
2022-07-29T10:14:25.158Z,26.69
2022-07-29T10:15:29.430Z,26.74
2022-07-29T10:16:32.378Z,26.74
2022-07-29T10:17:35.112Z,26.76
2022-07-29T10:18:39.916Z,26.76
2022-07-29T10:19:42.602Z,26.75
2022-07-29T10:20:45.379Z,26.73
2022-07-29T10:21:49.066Z,26.74
2022-07-29T10:22:53.707Z,26.78
2022-07-29T10:24:01.086Z,26.78
2022-07-29T10:26:12.890Z,27.01
2022-07-29T10:27:15.640Z,26.98
2022-07-29T10:28:18.194Z,27.03
2022-07-29T10:29:21.480Z,27.08
2022-07-29T10:30:26.591Z,27.14
2022-07-29T10:31:32.094Z,27.23
2022-07-29T10:33:12.420Z,27.31
2022-07-29T10:34:24.982Z,27.38
2022-07-29T10:35:48.302Z,27.41
2022-07-29T10:38:24.771Z,27.62
2022-07-29T10:39:44.352Z,27.57
2022-07-29T10:41:06.778Z,27.59
2022-07-29T10:42:20.306Z,27.63
2022-07-29T10:43:27.788Z,27.70
2022-07-29T10:44:32.395Z,27.74
2022-07-29T10:45:35.072Z,27.72
2022-07-29T10:46:41.291Z,27.71
2022-07-29T10:49:08.419Z,27.76
2022-07-29T10:50:17.231Z,27.64
2022-07-29T10:51:17.848Z,27.67
2022-07-29T10:52:20.893Z,27.73
2022-07-29T10:53:25.822Z,27.79
2022-07-29T10:54:45.416Z,27.82
2022-07-29T10:55:48.621Z,27.85
2022-07-29T10:56:51.550Z,27.88
2022-07-29T10:58:18.073Z,27.93
2022-07-29T10:59:23.519Z,28.01
2022-07-29T11:00:29.163Z,28.11
2022-07-29T11:01:37.083Z,28.16
2022-07-29T11:02:41.955Z,28.24
2022-07-29T11:05:00.648Z,28.49
2022-07-29T11:06:08.801Z,28.29
2022-07-29T11:07:08.338Z,28.26
2022-07-29T11:08:19.684Z,28.19
2022-07-29T11:09:20.311Z,28.13
2022-07-29T11:10:27.038Z,28.12
2022-07-29T11:11:31.419Z,28.17
2022-07-29T11:12:39.501Z,28.15
2022-07-29T11:13:46.581Z,28.24
2022-07-29T11:14:56.613Z,28.29
2022-07-29T11:15:59.407Z,28.30
2022-07-29T11:18:17.428Z,28.45
2022-07-29T11:19:26.276Z,28.33
2022-07-29T11:20:41.671Z,28.35
2022-07-29T11:21:54.008Z,28.34
2022-07-29T11:22:49.901Z,28.37
2022-07-29T11:23:52.702Z,28.34
2022-07-29T11:25:17.582Z,28.35
2022-07-29T11:27:30.620Z,28.36
2022-07-29T11:28:35.020Z,28.39
2022-07-29T11:31:03.427Z,28.60
2022-07-29T11:33:54.830Z,28.71
2022-07-29T11:34:36.281Z,28.63
2022-07-29T11:35:39.958Z,28.62
2022-07-29T11:37:07.473Z,28.62
2022-07-29T11:38:27.947Z,28.66
2022-07-29T11:39:36.347Z,28.72
2022-07-29T11:40:35.262Z,28.67
2022-07-29T11:49:39.189Z,28.62
2022-07-29T11:50:44.313Z,28.65
2022-07-29T11:51:52.182Z,28.72
2022-07-29T11:52:55.016Z,28.78
2022-07-29T11:54:04.113Z,28.87
2022-07-29T11:56:26.382Z,29.06
2022-07-29T11:57:36.021Z,29.11
2022-07-29T11:58:33.656Z,29.06
2022-07-29T11:59:40.307Z,28.97
2022-07-29T12:00:46.528Z,28.88
2022-07-29T12:02:12.059Z,28.77
2022-07-29T12:03:02.818Z,28.63
2022-07-29T12:05:22.282Z,28.64
2022-07-29T12:06:21.838Z,28.56
2022-07-29T12:07:01.385Z,28.33
2022-07-29T12:07:32.707Z,28.57
2022-07-29T12:08:41.080Z,28.55
2022-07-29T12:09:51.164Z,28.52
2022-07-29T12:10:56.204Z,28.52
2022-07-29T12:12:04.943Z,28.43
2022-07-29T12:13:04.276Z,28.31
2022-07-29T12:14:07.044Z,28.24
2022-07-29T12:15:16.731Z,28.18
2022-07-29T12:16:25.819Z,28.11
2022-07-29T12:18:42.558Z,28.09
2022-07-29T12:19:45.155Z,27.95
2022-07-29T12:20:48.125Z,27.85
2022-07-29T12:21:56.349Z,27.79
2022-07-29T12:22:57.232Z,27.74
2022-07-29T12:24:08.825Z,27.73
2022-07-29T12:25:32.214Z,27.73
2022-07-29T12:26:21.881Z,27.74
2022-07-29T12:27:28.588Z,27.72
2022-07-29T12:28:27.496Z,27.72
2022-07-29T12:29:33.678Z,27.72
2022-07-29T12:30:40.484Z,27.73
2022-07-29T12:31:45.348Z,27.76
2022-07-29T12:32:48.615Z,27.78
2022-07-29T12:33:54.604Z,27.79
2022-07-29T12:34:57.398Z,27.79
2022-07-29T12:36:12.859Z,27.74
2022-07-29T12:37:05.897Z,27.64
2022-07-29T12:38:11.018Z,27.57
2022-07-29T12:39:13.716Z,27.59
2022-07-29T12:40:17.548Z,27.59
2022-07-29T12:41:20.638Z,27.64
2022-07-29T12:42:23.477Z,27.71
2022-07-29T12:43:26.186Z,27.79
2022-07-29T12:45:57.157Z,28.02
2022-07-29T12:48:36.144Z,28.11
2022-07-29T12:49:38.898Z,28.05
2022-07-29T12:50:59.955Z,28.11
2022-07-29T12:52:24.098Z,28.10
2022-07-29T12:53:26.968Z,28.15
2022-07-29T12:54:29.647Z,28.18
2022-07-29T12:56:59.146Z,28.31
2022-07-29T12:58:01.871Z,28.21
2022-07-29T12:59:18.454Z,28.25
2022-07-29T13:00:23.556Z,28.25
2022-07-29T13:01:26.550Z,28.27
2022-07-29T13:02:29.383Z,28.27
2022-07-29T13:05:10.748Z,28.36
2022-07-29T13:06:45.890Z,28.29
2022-07-29T13:08:29.690Z,28.25
2022-07-29T13:10:24.117Z,28.35
2022-07-29T13:11:50.330Z,28.25
2022-07-29T13:13:07.921Z,28.26
2022-07-29T13:14:12.030Z,28.28
2022-07-29T13:15:15.264Z,28.28
2022-07-29T13:16:20.890Z,28.29
2022-07-29T13:17:23.839Z,28.30
2022-07-29T13:18:34.194Z,28.31
2022-07-29T13:19:44.864Z,28.34
2022-07-29T13:20:48.208Z,28.37
2022-07-29T13:21:50.873Z,28.39
2022-07-29T13:22:53.582Z,28.40
2022-07-29T13:23:56.249Z,28.40
2022-07-29T13:24:59.970Z,28.35
2022-07-29T13:27:22.622Z,28.42
2022-07-29T13:28:25.360Z,28.34
2022-07-29T13:29:31.449Z,28.33
2022-07-29T13:30:32.939Z,28.33
2022-07-29T13:31:35.968Z,28.33
2022-07-29T13:32:39.585Z,28.33
2022-07-29T13:33:42.172Z,28.40
2022-07-29T13:34:44.984Z,28.54
2022-07-29T13:35:47.757Z,28.68
2022-07-29T13:36:50.656Z,28.85
2022-07-29T13:37:53.502Z,28.89
2022-07-29T13:38:56.103Z,29.04
2022-07-29T13:39:58.863Z,29.19
2022-07-29T13:42:12.218Z,29.55
2022-07-29T13:43:14.939Z,29.54
2022-07-29T13:44:17.618Z,29.58
2022-07-29T13:45:20.298Z,29.61
2022-07-29T13:46:23.849Z,29.59
2022-07-29T13:47:32.099Z,29.60
2022-07-29T13:48:30.966Z,29.63
2022-07-29T13:49:33.849Z,29.67
2022-07-29T13:50:36.630Z,29.69
2022-07-29T13:51:39.210Z,29.70
2022-07-29T13:52:41.798Z,29.69
2022-07-29T13:53:44.495Z,29.70
2022-07-29T13:54:47.173Z,29.75
2022-07-29T13:55:50.000Z,29.81
2022-07-29T13:56:53.102Z,29.86
2022-07-29T13:59:06.666Z,30.02
2022-07-29T14:00:12.231Z,30.12
2022-07-29T14:01:15.214Z,30.39
2022-07-29T14:02:19.170Z,30.66
2022-07-29T14:03:22.058Z,30.92
2022-07-29T14:04:24.955Z,31.17
2022-07-29T14:05:27.699Z,31.41
2022-07-29T14:06:30.615Z,31.57
2022-07-29T14:07:33.196Z,31.62
2022-07-29T14:08:35.789Z,31.39
2022-07-29T14:09:41.463Z,31.26
2022-07-29T14:10:43.260Z,31.04
2022-07-29T14:11:46.044Z,30.85
2022-07-29T14:12:48.760Z,30.69
2022-07-29T14:13:51.440Z,30.55
2022-07-29T14:14:54.111Z,30.35
2022-07-29T14:15:56.777Z,30.12
2022-07-29T14:16:59.818Z,29.89
2022-07-29T14:18:02.776Z,29.70
2022-07-29T14:19:05.533Z,29.51
2022-07-29T14:20:10.043Z,29.30
2022-07-29T14:21:12.729Z,29.12
2022-07-29T14:22:15.540Z,28.97
2022-07-29T14:23:20.339Z,28.90
2022-07-29T14:24:23.875Z,28.83
2022-07-29T14:25:26.715Z,28.82
2022-07-29T14:26:31.186Z,28.96
2022-07-29T14:27:38.156Z,29.10
2022-07-29T14:28:41.946Z,29.26
2022-07-29T14:29:44.697Z,29.34
2022-07-29T14:30:47.471Z,29.32
2022-07-29T14:31:50.175Z,29.35
2022-07-29T14:32:52.910Z,29.23
2022-07-29T14:33:58.832Z,29.10
2022-07-29T14:35:00.241Z,29.08
2022-07-29T14:36:03.694Z,28.98
2022-07-29T14:37:07.067Z,28.90
2022-07-29T14:38:10.006Z,28.84
2022-07-29T14:39:12.789Z,28.73
2022-07-29T14:40:17.418Z,28.57
2022-07-29T14:41:20.233Z,28.42
2022-07-29T14:42:23.004Z,28.31
2022-07-29T14:43:25.792Z,28.25
2022-07-29T14:44:28.474Z,28.35
2022-07-29T14:45:31.392Z,28.62
2022-07-29T14:46:34.441Z,28.89
2022-07-29T14:47:37.878Z,29.06
2022-07-29T14:48:40.604Z,29.16
2022-07-29T14:49:43.484Z,29.43
2022-07-29T14:50:46.370Z,29.68
2022-07-29T14:51:49.051Z,29.96
2022-07-29T14:52:51.834Z,30.19
2022-07-29T14:53:54.413Z,30.37